Time;durP1;ratioP1;P1;durP2;ratioP2;P2;SDS_P1;SDS_P2;PMS_P1;PMS_P2;Temp;Humidity;BMP_temperature;BMP_pressure;BME280_temperature;BME280_humidity;BME280_pressure;Samples;Min_cycle;Max_cycle;Signal;HPM_P1;HPM_P2
2023/02/09 00:00:00;;;;;;;27.38;9.02;;;6.70;49.20;;;;;;7567803;23;20002;-66
2023/02/09 00:03:01;;;;;;;170.55;33.65;;;6.70;49.30;;;;;;7567686;23;20010;-65
2023/02/09 00:06:04;;;;;;;22.88;9.52;;;6.60;49.30;;;;;;7541899;23;20514;-64
2023/02/09 00:09:05;;;;;;;25.08;9.55;;;6.60;49.30;;;;;;7542310;23;20014;-66
2023/02/09 00:15:25;;;;;;;21.10;8.68;;;6.60;49.50;;;;;;7567454;23;20042;-65
2023/02/09 00:18:27;;;;;;;15.48;7.63;;;6.60;49.60;;;;;;7567233;23;20035;-65
2023/02/09 00:21:29;;;;;;;24.02;9.40;;;6.60;49.70;;;;;;7567166;23;20082;-64
2023/02/09 00:24:30;;;;;;;32.05;9.07;;;6.60;49.70;;;;;;7567398;23;20013;-64
2023/02/09 00:27:34;;;;;;;19.77;7.55;;;6.50;49.70;;;;;;7568729;23;20017;-66
2023/02/09 00:30:36;;;;;;;19.40;8.98;;;6.50;49.80;;;;;;7544299;23;20018;-67
2023/02/09 00:33:37;;;;;;;29.33;10.63;;;6.50;49.80;;;;;;7541974;23;20017;-65
2023/02/09 00:36:38;;;;;;;20.75;9.13;;;6.50;49.70;;;;;;7542234;23;20065;-67
2023/02/09 00:39:39;;;;;;;22.25;9.63;;;6.50;49.70;;;;;;7555578;23;20006;-65
2023/02/09 00:42:40;;;;;;;21.67;8.27;;;6.50;49.70;;;;;;7568365;23;20010;-65
2023/02/09 00:45:41;;;;;;;25.63;9.90;;;6.50;49.70;;;;;;7568808;23;20376;-66
2023/02/09 00:48:42;;;;;;;26.98;8.75;;;6.50;49.70;;;;;;7567136;23;20010;-65
2023/02/09 00:51:45;;;;;;;20.80;8.23;;;6.50;49.80;;;;;;7567160;23;20021;-66
2023/02/09 00:54:46;;;;;;;18.42;7.60;;;6.50;49.70;;;;;;7567000;23;20021;-65
2023/02/09 00:57:50;;;;;;;19.05;7.20;;;6.40;49.70;;;;;;7565044;23;20010;-65
2023/02/09 01:00:51;;;;;;;26.98;8.52;;;6.40;49.80;;;;;;7567005;23;20041;-65
2023/02/09 01:03:52;;;;;;;33.63;9.13;;;6.40;50.00;;;;;;7565605;23;20373;-64
2023/02/09 01:06:54;;;;;;;17.60;7.90;;;6.30;50.10;;;;;;7567160;23;20010;-64
2023/02/09 01:09:55;;;;;;;17.38;8.35;;;6.20;50.30;;;;;;7567084;23;20391;-65
2023/02/09 01:12:56;;;;;;;26.40;10.25;;;6.10;50.60;;;;;;7568444;23;20316;-65
2023/02/09 01:15:57;;;;;;;45.70;14.27;;;6.10;50.90;;;;;;7567119;23;20010;-66
2023/02/09 01:19:00;;;;;;;28.77;8.77;;;5.90;51.00;;;;;;7566936;23;20011;-65
2023/02/09 01:22:03;;;;;;;37.58;9.23;;;5.90;51.30;;;;;;7565447;23;20094;-64
2023/02/09 01:25:05;;;;;;;22.08;10.20;;;5.80;51.50;;;;;;7565602;23;20377;-66
2023/02/09 01:28:07;;;;;;;24.85;9.48;;;5.80;51.60;;;;;;7565203;23;20317;-65
2023/02/09 01:31:24;;;;;;;17.40;8.30;;;5.70;51.80;;;;;;7565245;23;20095;-65
2023/02/09 01:34:26;;;;;;;24.85;10.27;;;5.70;51.90;;;;;;7566579;23;20097;-66
2023/02/09 01:37:27;;;;;;;19.02;9.68;;;5.70;52.00;;;;;;7564612;23;20344;-65
2023/02/09 01:40:28;;;;;;;21.67;9.10;;;5.60;51.90;;;;;;7564794;23;20402;-66
2023/02/09 01:43:45;;;;;;;16.10;7.93;;;5.60;51.80;;;;;;7565022;23;20007;-65
2023/02/09 01:46:47;;;;;;;21.55;8.70;;;5.70;51.70;;;;;;7564790;23;20010;-66
2023/02/09 01:49:50;;;;;;;22.00;8.98;;;5.80;51.60;;;;;;7541002;23;20006;-65
2023/02/09 01:52:52;;;;;;;21.67;7.93;;;5.80;51.60;;;;;;7566819;23;20003;-65
2023/02/09 01:56:05;;;;;;;27.33;9.32;;;5.90;51.60;;;;;;7565239;23;20557;-65
2023/02/09 01:59:07;;;;;;;21.80;9.73;;;5.90;51.40;;;;;;7564786;23;20014;-64
2023/02/09 02:02:11;;;;;;;22.63;9.32;;;6.00;51.40;;;;;;7565172;23;20085;-65
2023/02/09 02:05:12;;;;;;;19.83;9.18;;;6.00;51.20;;;;;;7564995;23;20113;-66
2023/02/09 02:08:37;;;;;;;48.25;9.73;;;6.00;51.20;;;;;;7564043;23;20011;-65
2023/02/09 02:11:41;;;;;;;52.40;12.10;;;6.00;51.20;;;;;;7564783;23;20018;-65
2023/02/09 02:14:44;;;;;;;19.92;7.68;;;5.90;51.20;;;;;;7564573;23;20014;-66
2023/02/09 02:17:54;;;;;;;21.27;8.02;;;5.90;51.40;;;;;;7540346;23;20006;-65
2023/02/09 02:21:13;;;;;;;19.13;8.05;;;5.90;51.40;;;;;;7541014;23;20085;-65
2023/02/09 02:24:45;;;;;;;22.05;9.88;;;5.80;51.50;;;;;;7566259;23;20638;-65
2023/02/09 02:28:06;;;;;;;21.13;7.68;;;5.80;51.50;;;;;;7564296;23;20093;-66
2023/02/09 02:31:38;;;;;;;37.08;10.13;;;5.80;51.60;;;;;;7566377;23;20021;-66
2023/02/09 02:34:59;;;;;;;20.40;9.25;;;5.80;51.70;;;;;;7547236;23;20021;-66
2023/02/09 02:38:06;;;;;;;23.10;8.30;;;5.80;51.70;;;;;;7565735;23;20010;-66
2023/02/09 02:41:15;;;;;;;23.73;8.90;;;5.70;51.80;;;;;;7566825;23;20003;-64
2023/02/09 02:44:17;;;;;;;;;;;5.70;51.90;;;;;;7541712;23;20010;-65
2023/02/09 02:47:20;;;;;;;29.80;8.63;;;5.70;52.00;;;;;;7540570;23;20573;-65
2023/02/09 02:50:25;;;;;;;27.65;10.52;;;5.60;52.00;;;;;;7516914;23;20277;-66
2023/02/09 02:53:31;;;;;;;26.10;10.05;;;5.60;52.10;;;;;;7540727;23;20041;-65
2023/02/09 02:56:43;;;;;;;26.80;10.02;;;5.60;52.20;;;;;;7516821;23;20105;-65
2023/02/09 02:59:52;;;;;;;27.90;8.07;;;5.60;52.20;;;;;;7567651;23;20009;-65
2023/02/09 03:02:57;;;;;;;25.88;8.57;;;5.60;52.30;;;;;;7566042;23;20324;-68
2023/02/09 03:06:01;;;;;;;22.85;8.48;;;5.60;52.20;;;;;;7540601;23;20014;-64
2023/02/09 03:09:04;;;;;;;20.85;8.77;;;5.50;52.30;;;;;;7539542;23;20034;-66
2023/02/09 03:12:37;;;;;;;18.02;8.77;;;5.50;52.40;;;;;;7565825;23;20014;-65
2023/02/09 03:16:11;;;;;;;24.00;9.88;;;5.50;52.60;;;;;;7540160;23;20022;-65
2023/02/09 03:19:24;;;;;;;27.25;11.15;;;5.40;52.80;;;;;;7540043;23;20010;-65
2023/02/09 03:22:28;;;;;;;19.60;9.15;;;5.40;52.90;;;;;;7568378;23;20101;-65
2023/02/09 03:25:33;;;;;;;19.23;9.13;;;5.30;53.00;;;;;;7542494;23;20093;-65
2023/02/09 03:28:38;;;;;;;14.43;8.10;;;5.30;53.10;;;;;;7519676;23;20021;-66
2023/02/09 03:31:40;;;;;;;19.48;9.73;;;5.30;53.20;;;;;;7568038;23;20006;-65
2023/02/09 03:34:41;;;;;;;31.33;10.90;;;5.20;53.30;;;;;;7542281;23;20017;-65
2023/02/09 03:37:42;;;;;;;24.80;9.52;;;5.20;53.40;;;;;;7541737;23;20106;-65
2023/02/09 03:40:44;;;;;;;21.20;8.40;;;5.20;53.50;;;;;;7567897;23;20014;-66
2023/02/09 03:47:07;;;;;;;19.98;9.57;;;5.20;53.40;;;;;;7567396;23;20072;-65
2023/02/09 03:50:09;;;;;;;21.92;9.88;;;5.30;53.40;;;;;;7567878;23;20357;-65
2023/02/09 03:53:10;;;;;;;16.45;7.88;;;5.30;53.40;;;;;;7567643;23;20504;-65
2023/02/09 03:56:11;;;;;;;25.67;9.27;;;5.30;53.40;;;;;;7542199;23;20010;-65
2023/02/09 03:59:12;;;;;;;15.98;7.85;;;5.30;53.30;;;;;;7567239;23;20009;-65
2023/02/09 04:02:13;;;;;;;19.50;8.45;;;5.30;53.20;;;;;;7567640;23;20016;-64
2023/02/09 04:05:14;;;;;;;15.40;6.78;;;5.40;53.10;;;;;;7542639;23;20333;-66
2023/02/09 04:08:15;;;;;;;28.50;8.93;;;5.40;53.00;;;;;;7544062;23;20053;-64
2023/02/09 04:11:16;;;;;;;21.52;9.13;;;5.40;52.90;;;;;;7522794;23;20340;-66
2023/02/09 04:14:18;;;;;;;23.40;9.23;;;5.40;52.80;;;;;;7568869;23;20007;-65
2023/02/09 04:17:19;;;;;;;24.95;9.35;;;5.40;52.80;;;;;;7541712;23;20006;-66
2023/02/09 04:20:20;;;;;;;22.50;9.80;;;5.40;52.80;;;;;;7541994;23;20068;-64
2023/02/09 04:23:21;;;;;;;25.60;9.65;;;5.30;52.90;;;;;;7517802;23;20066;-65
2023/02/09 04:26:22;;;;;;;22.17;9.02;;;5.30;53.10;;;;;;7567290;23;20097;-66
2023/02/09 04:29:23;;;;;;;22.10;8.80;;;5.20;53.20;;;;;;7541606;23;20006;-66
2023/02/09 04:32:24;;;;;;;24.45;9.98;;;5.20;53.60;;;;;;7517920;23;20017;-65
2023/02/09 04:35:25;;;;;;;20.45;9.52;;;5.10;53.40;;;;;;7541511;23;20014;-66
2023/02/09 04:38:28;;;;;;;24.50;9.98;;;5.10;53.50;;;;;;7566545;23;20420;-65
2023/02/09 04:41:29;;;;;;;23.58;8.40;;;5.10;53.70;;;;;;7567060;23;20034;-65
2023/02/09 04:44:29;;;;;;;18.73;7.63;;;5.10;53.80;;;;;;7541332;23;20094;-65
2023/02/09 04:47:31;;;;;;;23.17;8.73;;;5.10;53.80;;;;;;7566692;23;20085;-65
2023/02/09 04:50:33;;;;;;;19.15;8.18;;;5.00;53.80;;;;;;7541669;23;20377;-66
2023/02/09 04:53:34;;;;;;;20.60;8.55;;;5.00;53.90;;;;;;7541140;23;20010;-66
2023/02/09 04:56:35;;;;;;;17.88;7.57;;;5.00;53.90;;;;;;7566957;23;20006;-64
2023/02/09 04:59:38;;;;;;;18.48;7.72;;;5.00;53.90;;;;;;7566516;23;20011;-64
2023/02/09 05:02:39;;;;;;;12.82;6.97;;;5.00;53.90;;;;;;7517381;23;20373;-64
2023/02/09 05:05:41;;;;;;;18.23;7.07;;;5.00;53.80;;;;;;7541207;23;20443;-66
2023/02/09 05:08:43;;;;;;;15.20;7.65;;;5.00;53.90;;;;;;7566642;23;20010;-66
2023/02/09 05:11:44;;;;;;;25.42;6.88;;;4.90;53.90;;;;;;7566705;23;20007;-67
2023/02/09 05:14:45;;;;;;;17.10;8.05;;;4.80;54.10;;;;;;7541578;23;20017;-66
2023/02/09 05:17:46;;;;;;;18.98;7.57;;;4.80;54.30;;;;;;7566389;23;20010;-65
2023/02/09 05:20:47;;;;;;;25.58;10.27;;;4.70;54.50;;;;;;7567301;23;20003;-64
2023/02/09 05:23:48;;;;;;;15.93;9.00;;;4.60;54.50;;;;;;7542599;23;20366;-64
2023/02/09 05:26:49;;;;;;;15.25;7.38;;;4.60;54.70;;;;;;7567729;23;20061;-66
2023/02/09 05:29:50;;;;;;;19.00;9.20;;;4.60;54.90;;;;;;7541374;23;20050;-65
2023/02/09 05:32:52;;;;;;;22.23;10.57;;;4.60;55.00;;;;;;7566631;23;20026;-65
2023/02/09 05:35:54;;;;;;;30.38;11.60;;;4.60;55.00;;;;;;7540897;23;20340;-66
2023/02/09 05:38:55;;;;;;;24.00;9.25;;;4.60;55.10;;;;;;7544951;23;20085;-65
2023/02/09 05:42:14;;;;;;;18.63;8.88;;;4.50;55.10;;;;;;7566097;23;20141;-65
2023/02/09 05:45:15;;;;;;;23.88;9.65;;;4.40;55.20;;;;;;7566372;23;20400;-65
2023/02/09 05:48:16;;;;;;;30.52;10.82;;;4.40;55.40;;;;;;7565912;23;20017;-65
2023/02/09 05:51:17;;;;;;;28.17;12.65;;;4.40;55.50;;;;;;7566369;23;20097;-65
2023/02/09 05:54:19;;;;;;;25.60;10.73;;;4.40;55.60;;;;;;7564662;23;20018;-66
2023/02/09 05:57:20;;;;;;;31.48;11.40;;;4.50;55.70;;;;;;7540430;23;20089;-65
2023/02/09 06:00:23;;;;;;;30.50;8.98;;;4.40;55.60;;;;;;7540901;23;20560;-66
2023/02/09 06:03:24;;;;;;;32.58;10.90;;;4.40;55.60;;;;;;7566091;23;20112;-65
2023/02/09 06:06:26;;;;;;;23.10;9.98;;;4.40;55.50;;;;;;7540634;23;20010;-65
2023/02/09 06:09:27;;;;;;;17.70;8.93;;;4.40;55.60;;;;;;7565947;23;20336;-66
2023/02/09 06:12:28;;;;;;;21.70;10.18;;;4.40;55.50;;;;;;7564278;23;20010;-65
2023/02/09 06:15:29;;;;;;;28.85;11.90;;;4.40;55.50;;;;;;7564617;23;20093;-65
2023/02/09 06:18:30;;;;;;;22.65;10.18;;;4.40;55.60;;;;;;7564286;23;20054;-65
2023/02/09 06:21:31;;;;;;;25.92;11.60;;;4.40;55.60;;;;;;7540617;23;20010;-65
2023/02/09 06:24:32;;;;;;;23.80;10.23;;;4.40;55.60;;;;;;7564385;23;20431;-66
2023/02/09 06:27:34;;;;;;;29.65;9.35;;;4.40;55.70;;;;;;7565794;23;20408;-65
2023/02/09 06:30:35;;;;;;;27.60;11.50;;;4.40;55.80;;;;;;7566042;23;20093;-65
2023/02/09 06:33:37;;;;;;;26.40;10.10;;;4.30;55.90;;;;;;7540386;23;20117;-64
2023/02/09 06:36:38;;;;;;;23.52;10.15;;;4.30;55.90;;;;;;7566469;23;20014;-65
2023/02/09 06:39:39;;;;;;;21.20;9.43;;;4.30;56.00;;;;;;7565570;23;20165;-66
2023/02/09 06:42:43;;;;;;;30.40;11.68;;;4.30;56.00;;;;;;7540292;23;20085;-64
2023/02/09 06:45:44;;;;;;;20.52;9.13;;;4.30;56.10;;;;;;7565851;23;20479;-64
2023/02/09 06:48:45;;;;;;;25.15;9.27;;;4.20;56.20;;;;;;7540037;23;20026;-65
2023/02/09 06:51:47;;;;;;;20.90;9.32;;;4.20;56.30;;;;;;7540580;23;20281;-64
2023/02/09 06:54:48;;;;;;;20.08;8.73;;;4.20;56.40;;;;;;7542202;23;20041;-65
2023/02/09 06:57:49;;;;;;;21.88;10.80;;;4.20;56.40;;;;;;7542592;23;20013;-64
2023/02/09 07:00:50;;;;;;;19.90;9.48;;;4.20;56.40;;;;;;7568359;23;20388;-64
2023/02/09 07:03:51;;;;;;;25.23;9.95;;;4.30;56.40;;;;;;7569088;23;20014;-67
2023/02/09 07:06:55;;;;;;;21.00;8.57;;;4.30;56.20;;;;;;7570777;23;20003;-66
2023/02/09 07:09:56;;;;;;;30.38;9.40;;;4.40;56.20;;;;;;7545267;23;20013;-64
2023/02/09 07:12:57;;;;;;;33.55;9.32;;;4.40;56.20;;;;;;7569028;23;20098;-65
2023/02/09 07:16:00;;;;;;;23.67;9.52;;;4.50;56.10;;;;;;7519213;23;20428;-65
2023/02/09 07:19:01;;;;;;;20.95;8.98;;;4.60;56.00;;;;;;7542442;23;20373;-65
2023/02/09 07:22:03;;;;;;;22.20;10.30;;;4.70;55.80;;;;;;7568849;23;20006;-68
2023/02/09 07:25:04;;;;;;;21.65;9.93;;;4.70;55.60;;;;;;7542280;23;20098;-65
2023/02/09 07:28:06;;;;;;;23.75;10.63;;;4.70;55.50;;;;;;7541570;23;20439;-64
2023/02/09 07:31:09;;;;;;;24.48;9.40;;;4.70;55.40;;;;;;7567781;23;20376;-65
2023/02/09 07:34:10;;;;;;;24.00;10.32;;;4.70;55.30;;;;;;7567788;23;20020;-65
2023/02/09 07:37:11;;;;;;;24.33;9.35;;;4.70;55.40;;;;;;7566748;23;20007;-64
2023/02/09 07:40:12;;;;;;;25.08;10.15;;;4.70;55.40;;;;;;7562020;23;20452;-64
2023/02/09 07:43:13;;;;;;;26.25;10.70;;;4.70;55.40;;;;;;7566044;23;20022;-65
2023/02/09 07:46:16;;;;;;;21.52;10.13;;;4.70;55.40;;;;;;7567147;23;20080;-64
2023/02/09 07:49:17;;;;;;;29.92;11.02;;;4.70;55.40;;;;;;7569913;23;20469;-67
2023/02/09 07:52:19;;;;;;;22.00;9.40;;;4.70;55.40;;;;;;7567961;23;20038;-66
2023/02/09 07:55:20;;;;;;;22.77;9.45;;;4.70;55.50;;;;;;7567422;23;20013;-65
2023/02/09 07:58:21;;;;;;;23.10;11.15;;;4.70;55.50;;;;;;7567225;23;20030;-64
2023/02/09 08:01:24;;;;;;;26.90;9.77;;;4.70;55.50;;;;;;7567755;23;20002;-65
2023/02/09 08:04:25;;;;;;;28.90;10.63;;;4.70;55.60;;;;;;7567583;23;20019;-65
2023/02/09 08:07:27;;;;;;;26.60;9.82;;;4.70;55.60;;;;;;7567000;23;20017;-65
2023/02/09 08:10:28;;;;;;;25.88;10.43;;;4.70;55.60;;;;;;7566343;23;20077;-65
2023/02/09 08:13:36;;;;;;;22.90;9.95;;;4.80;55.60;;;;;;7541696;23;20010;-65
2023/02/09 08:16:38;;;;;;;21.50;8.77;;;4.80;55.50;;;;;;7567564;23;20074;-65
2023/02/09 08:19:40;;;;;;;26.02;11.48;;;4.80;55.40;;;;;;7565613;23;20321;-64
2023/02/09 08:22:45;;;;;;;25.98;11.25;;;4.90;55.30;;;;;;7565574;23;20281;-64
2023/02/09 08:25:50;;;;;;;31.02;10.13;;;4.90;55.20;;;;;;7567436;23;20013;-65
2023/02/09 08:28:52;;;;;;;27.05;9.77;;;4.90;55.20;;;;;;7565193;23;20010;-65
2023/02/09 08:31:53;;;;;;;19.38;9.48;;;4.90;55.10;;;;;;7565676;23;20032;-65
2023/02/09 08:34:54;;;;;;;24.63;8.55;;;4.90;54.90;;;;;;7566766;23;20006;-65
2023/02/09 08:37:59;;;;;;;18.88;9.65;;;5.00;54.70;;;;;;7566135;23;20030;-65
2023/02/09 08:41:05;;;;;;;22.40;8.95;;;5.10;54.10;;;;;;7566888;23;20424;-63
2023/02/09 08:44:06;;;;;;;20.08;9.70;;;5.10;54.60;;;;;;7540462;23;20013;-66
2023/02/09 08:47:08;;;;;;;16.65;8.60;;;5.20;54.40;;;;;;7516262;23;20154;-65
2023/02/09 08:50:09;;;;;;;25.80;9.45;;;5.40;54.30;;;;;;7540394;23;20051;-65
2023/02/09 08:53:10;;;;;;;22.08;8.60;;;5.40;53.80;;;;;;7566490;23;20451;-66
2023/02/09 08:56:11;;;;;;;22.48;9.10;;;5.50;53.50;;;;;;7540954;23;20011;-66
2023/02/09 08:59:12;;;;;;;22.02;9.18;;;5.50;53.30;;;;;;7540416;23;20006;-65
2023/02/09 09:02:13;;;;;;;20.88;8.45;;;5.60;53.10;;;;;;7566760;23;20014;-64
2023/02/09 09:05:14;;;;;;;22.40;10.07;;;5.70;53.10;;;;;;7540934;23;20037;-64
2023/02/09 09:08:15;;;;;;;31.95;9.40;;;5.80;52.90;;;;;;7565843;23;20093;-64
2023/02/09 09:11:16;;;;;;;19.13;8.40;;;5.90;52.70;;;;;;7540797;23;20073;-65
2023/02/09 09:14:17;;;;;;;22.00;9.02;;;6.00;53.10;;;;;;7566446;23;20010;-65
2023/02/09 09:17:18;;;;;;;24.70;10.82;;;6.00;52.20;;;;;;7566063;23;20440;-64
2023/02/09 09:20:21;;;;;;;20.48;9.05;;;6.00;52.10;;;;;;7566409;23;20457;-64
2023/02/09 09:23:22;;;;;;;25.13;11.35;;;6.10;52.10;;;;;;7566435;23;20432;-65
2023/02/09 09:26:23;;;;;;;21.30;10.50;;;6.10;52.10;;;;;;7566390;23;20448;-63
2023/02/09 09:29:24;;;;;;;38.00;11.50;;;6.50;52.20;;;;;;7565793;23;20130;-65
2023/02/09 09:32:26;;;;;;;33.10;13.57;;;6.30;52.10;;;;;;7540868;23;20025;-65
2023/02/09 09:35:27;;;;;;;29.90;12.20;;;6.30;52.00;;;;;;7566063;23;20093;-65
2023/02/09 09:38:28;;;;;;;22.58;10.23;;;6.50;51.90;;;;;;7565839;23;20045;-65
2023/02/09 09:41:36;;;;;;;32.78;13.32;;;6.60;51.70;;;;;;7540561;23;20010;-64
2023/02/09 09:44:46;;;;;;;20.70;8.55;;;6.70;51.50;;;;;;7566245;23;20006;-65
2023/02/09 09:47:47;;;;;;;41.13;11.27;;;6.80;51.10;;;;;;7565599;23;20090;-65
2023/02/09 09:50:55;;;;;;;26.83;11.13;;;6.90;50.70;;;;;;7566153;23;20014;-66
2023/02/09 09:53:58;;;;;;;25.92;10.10;;;7.00;50.50;;;;;;7567243;23;20369;-64
2023/02/09 09:57:00;;;;;;;21.90;9.05;;;7.10;50.40;;;;;;7568355;23;20080;-64
2023/02/09 10:00:03;;;;;;;30.52;11.32;;;7.20;50.30;;;;;;7517958;23;20078;-65
2023/02/09 10:03:24;;;;;;;25.92;10.38;;;7.30;49.60;;;;;;7566640;23;20021;-65
2023/02/09 10:06:30;;;;;;;22.35;9.95;;;7.40;49.20;;;;;;7566429;23;20018;-63
2023/02/09 10:09:40;;;;;;;29.63;11.85;;;7.50;48.30;;;;;;7566300;23;20006;-64
2023/02/09 10:12:49;;;;;;;30.02;11.38;;;7.60;47.90;;;;;;7567669;23;20010;-63
2023/02/09 10:15:53;;;;;;;22.23;8.88;;;7.70;47.90;;;;;;7542921;23;20013;-65
2023/02/09 10:18:57;;;;;;;25.02;8.70;;;7.90;47.50;;;;;;7566048;23;20332;-64
2023/02/09 10:21:58;;;;;;;28.98;9.60;;;8.00;47.20;;;;;;7566498;23;20006;-65
2023/02/09 10:25:01;;;;;;;23.02;9.00;;;8.20;46.50;;;;;;7566629;23;20017;-65
2023/02/09 10:28:05;;;;;;;21.35;10.15;;;8.50;45.60;;;;;;7516683;23;20132;-66
2023/02/09 10:31:32;;;;;;;20.15;8.70;;;9.00;44.80;;;;;;7543104;23;20007;-65
2023/02/09 10:34:41;;;;;;;28.13;7.68;;;9.30;44.00;;;;;;7542926;23;20014;-65
2023/02/09 10:37:43;;;;;;;20.50;8.35;;;9.50;42.20;;;;;;7568259;23;20006;-66
2023/02/09 10:40:46;;;;;;;21.40;8.73;;;9.80;41.10;;;;;;7568506;23;20026;-65
2023/02/09 10:43:51;;;;;;;26.50;8.80;;;9.80;40.80;;;;;;7566916;23;20421;-64
2023/02/09 10:47:27;;;;;;;36.17;9.77;;;10.00;41.10;;;;;;7567925;23;20002;-67
2023/02/09 10:50:28;;;;;;;15.88;7.07;;;10.50;40.40;;;;;;7568003;23;20010;-65
2023/02/09 10:54:01;;;;;;;22.83;8.27;;;10.20;39.50;;;;;;7542306;23;20093;-64
2023/02/09 10:57:26;;;;;;;22.40;8.18;;;10.30;39.30;;;;;;7492774;23;20019;-66
2023/02/09 11:00:32;;;;;;;19.35;8.38;;;10.30;38.60;;;;;;7446158;23;20019;-64
2023/02/09 11:03:34;;;;;;;21.77;7.45;;;10.30;38.50;;;;;;7493684;23;20018;-64
2023/02/09 11:06:55;;;;;;;26.95;10.15;;;10.30;38.70;;;;;;7493262;23;20043;-65
2023/02/09 11:09:58;;;;;;;26.75;10.55;;;10.30;38.50;;;;;;7493682;23;20011;-63
2023/02/09 11:12:59;;;;;;;15.32;7.63;;;10.40;38.50;;;;;;7493382;23;20106;-64
2023/02/09 11:16:11;;;;;;;21.13;8.55;;;10.60;38.20;;;;;;7493587;23;20019;-65
2023/02/09 11:19:21;;;;;;;21.77;8.93;;;10.80;38.20;;;;;;7493073;23;20094;-65
2023/02/09 11:22:40;;;;;;;21.90;9.90;;;11.20;37.90;;;;;;7469769;23;20042;-64
2023/02/09 11:25:58;;;;;;;20.75;7.93;;;11.70;37.70;;;;;;7469933;23;20018;-65
2023/02/09 11:29:05;;;;;;;19.17;8.77;;;12.00;36.50;;;;;;7493044;23;20015;-64
2023/02/09 11:32:12;;;;;;;23.45;8.40;;;12.30;35.50;;;;;;7493598;23;20022;-64
2023/02/09 11:35:17;;;;;;;22.57;8.47;;;12.50;35.30;;;;;;7541528;23;20015;-64
2023/02/09 11:38:26;;;;;;;21.08;9.52;;;12.70;35.30;;;;;;7542022;23;20017;-65
2023/02/09 11:45:28;;;;;;;19.58;8.90;;;13.70;33.50;;;;;;7568076;23;20099;-65
2023/02/09 11:48:53;;;;;;;31.58;9.98;;;14.10;32.80;;;;;;7567502;23;20006;-65
2023/02/09 11:51:57;;;;;;;21.08;8.70;;;14.50;32.50;;;;;;7568363;23;20018;-64
2023/02/09 11:55:07;;;;;;;29.25;10.32;;;15.00;31.00;;;;;;7541938;23;20017;-64
2023/02/09 11:58:56;;;;;;;23.50;9.10;;;15.30;30.20;;;;;;7567151;23;20145;-64
2023/02/09 12:02:03;;;;;;;24.13;9.68;;;15.70;30.00;;;;;;7493065;23;20035;-64
2023/02/09 12:05:05;;;;;;;21.58;9.20;;;15.80;29.60;;;;;;7493106;23;20469;-65
2023/02/09 12:08:46;;;;;;;28.38;10.45;;;16.00;29.60;;;;;;7492765;23;20011;-64
2023/02/09 12:12:10;;;;;;;17.73;8.27;;;16.20;29.10;;;;;;7492407;23;20015;-65
2023/02/09 12:15:43;;;;;;;21.65;9.30;;;16.20;29.30;;;;;;7492482;23;20087;-66
2023/02/09 12:18:45;;;;;;;21.63;8.23;;;16.40;28.90;;;;;;7433354;23;20014;-64
2023/02/09 12:21:46;;;;;;;22.50;8.40;;;16.50;28.30;;;;;;7457053;23;20018;-65
2023/02/09 12:25:04;;;;;;;21.30;9.85;;;16.10;28.00;;;;;;7433619;23;20015;-64
2023/02/09 12:28:08;;;;;;;21.48;8.40;;;15.60;28.50;;;;;;7456798;23;20019;-64
2023/02/09 12:31:12;;;;;;;29.98;11.20;;;15.20;29.20;;;;;;7459882;23;20018;-65
2023/02/09 12:34:21;;;;;;;21.70;8.82;;;14.90;29.70;;;;;;7492242;23;20022;-64
2023/02/09 12:37:28;;;;;;;19.30;7.88;;;14.70;29.80;;;;;;7492049;23;20039;-64
2023/02/09 12:40:36;;;;;;;16.77;7.43;;;14.50;29.70;;;;;;7468137;23;20094;-65
2023/02/09 12:43:38;;;;;;;18.05;7.65;;;14.30;29.50;;;;;;7492176;23;20357;-64
2023/02/09 12:46:53;;;;;;;18.02;7.68;;;14.00;29.40;;;;;;7492012;23;20011;-64
2023/02/09 12:50:04;;;;;;;18.50;7.80;;;13.70;29.30;;;;;;7492676;23;20635;-65
2023/02/09 12:53:23;;;;;;;16.33;7.38;;;13.50;29.80;;;;;;7470950;23;20011;-64
2023/02/09 12:56:31;;;;;;;11.55;5.72;;;13.30;29.60;;;;;;7532909;23;20011;-66
2023/02/09 12:59:31;;;;;;;13.88;6.07;;;13.10;29.90;;;;;;7531153;23;20013;-64
2023/02/09 13:02:47;;;;;;;14.68;5.55;;;12.90;30.40;;;;;;7529540;23;20437;-63
2023/02/09 13:05:48;;;;;;;19.05;6.30;;;12.70;30.80;;;;;;7531624;23;20078;-63
2023/02/09 13:08:53;;;;;;;13.63;5.70;;;12.60;31.20;;;;;;7531109;23;20018;-64
2023/02/09 13:12:13;;;;;;;12.63;6.10;;;12.50;31.30;;;;;;7531628;23;20014;-65
2023/02/09 13:15:17;;;;;;;19.83;6.40;;;12.50;30.90;;;;;;7531007;23;20401;-65
2023/02/09 13:18:27;;;;;;;15.80;5.68;;;12.40;31.10;;;;;;7530579;23;20003;-64
2023/02/09 13:21:51;;;;;;;20.08;5.68;;;12.50;31.30;;;;;;7530529;23;20078;-65
2023/02/09 13:25:10;;;;;;;18.60;6.85;;;12.50;31.10;;;;;;7528938;23;20014;-65
2023/02/09 13:28:21;;;;;;;19.73;5.85;;;12.50;30.90;;;;;;7530409;23;20007;-64
2023/02/09 13:31:33;;;;;;;23.42;10.68;;;12.50;30.90;;;;;;7529027;23;20015;-65
2023/02/09 13:34:37;;;;;;;12.35;6.07;;;12.50;31.00;;;;;;7530454;23;20015;-66
2023/02/09 13:37:49;;;;;;;20.27;6.65;;;12.50;31.00;;;;;;7529481;23;20013;-66
2023/02/09 13:40:50;;;;;;;15.50;5.80;;;12.40;31.00;;;;;;7540851;23;20090;-64
2023/02/09 13:43:51;;;;;;;13.13;6.05;;;12.50;31.30;;;;;;7516971;23;20038;-64
2023/02/09 13:46:58;;;;;;;13.43;5.70;;;12.50;31.20;;;;;;7566244;23;20010;-64
2023/02/09 13:50:02;;;;;;;19.10;5.18;;;12.50;31.20;;;;;;7566196;23;20105;-64
2023/02/09 13:53:10;;;;;;;14.45;6.47;;;12.50;31.00;;;;;;7566155;23;20065;-64
2023/02/09 13:56:14;;;;;;;13.18;5.13;;;12.50;31.10;;;;;;7566038;23;20133;-65
2023/02/09 13:59:17;;;;;;;18.63;5.63;;;12.40;31.50;;;;;;7565950;23;20006;-65
2023/02/09 14:02:26;;;;;;;13.63;5.82;;;12.50;31.40;;;;;;7566065;23;20006;-65
2023/02/09 14:05:36;;;;;;;13.02;5.97;;;12.50;31.30;;;;;;7539925;23;20034;-63
2023/02/09 14:08:40;;;;;;;11.63;5.10;;;12.50;31.30;;;;;;7540269;23;20458;-64
2023/02/09 14:11:56;;;;;;;10.45;5.22;;;12.50;31.40;;;;;;7565527;23;20006;-63
2023/02/09 14:18:31;;;;;;;19.83;6.15;;;12.50;31.40;;;;;;7565303;23;20007;-64
2023/02/09 14:21:38;;;;;;;14.85;5.82;;;12.50;31.50;;;;;;7565878;23;20002;-64
2023/02/09 14:24:43;;;;;;;11.40;4.97;;;12.50;31.50;;;;;;7516246;23;20018;-65
2023/02/09 14:27:48;;;;;;;12.98;5.50;;;12.70;31.60;;;;;;7565866;23;20091;-65
2023/02/09 14:30:49;;;;;;;16.00;5.95;;;12.70;31.30;;;;;;7566180;23;20017;-66
2023/02/09 14:33:54;;;;;;;12.23;5.30;;;12.70;31.20;;;;;;7517014;23;20070;-64
2023/02/09 14:37:21;;;;;;;14.15;6.45;;;12.70;31.20;;;;;;7565790;23;20006;-65
2023/02/09 14:40:30;;;;;;;14.48;6.38;;;12.70;31.10;;;;;;7524264;23;20019;-64
2023/02/09 14:43:31;;;;;;;13.75;6.18;;;12.80;31.20;;;;;;7526647;23;20034;-65
2023/02/09 14:46:51;;;;;;;15.93;6.90;;;12.80;31.20;;;;;;7502916;23;20015;-65
2023/02/09 14:49:52;;;;;;;20.77;6.95;;;12.80;31.20;;;;;;7526717;23;20038;-63
2023/02/09 14:53:04;;;;;;;14.15;5.78;;;12.80;31.30;;;;;;7526609;23;20082;-64
2023/02/09 14:56:06;;;;;;;18.08;6.25;;;12.80;31.30;;;;;;7526679;23;20011;-65
2023/02/09 14:59:14;;;;;;;34.50;7.05;;;12.90;31.30;;;;;;7526241;23;20011;-64
2023/02/09 15:02:19;;;;;;;12.02;4.90;;;12.90;31.30;;;;;;7502990;23;20406;-65
2023/02/09 15:05:21;;;;;;;18.63;5.65;;;12.90;31.30;;;;;;7526828;23;20038;-65
2023/02/09 15:08:25;;;;;;;13.90;5.72;;;12.90;31.40;;;;;;7502760;23;20010;-65
2023/02/09 15:14:47;;;;;;;14.07;5.45;;;12.90;31.30;;;;;;7527203;23;20011;-64
2023/02/09 15:17:49;;;;;;;16.55;5.68;;;12.90;31.30;;;;;;7549879;23;20011;-64
2023/02/09 15:20:50;;;;;;;13.82;5.47;;;12.90;31.20;;;;;;7566399;23;20014;-65
2023/02/09 15:23:51;;;;;;;12.25;4.55;;;12.90;31.30;;;;;;7568205;23;20013;-65
2023/02/09 15:26:52;;;;;;;6.43;3.47;;;12.80;31.50;;;;;;7568151;23;20447;-64
2023/02/09 15:29:54;;;;;;;8.50;3.05;;;12.80;31.60;;;;;;7567190;23;20015;-66
2023/02/09 15:32:55;;;;;;;10.25;4.88;;;12.70;31.70;;;;;;7567769;23;20021;-65
2023/02/09 15:35:58;;;;;;;14.35;5.55;;;12.70;31.80;;;;;;7567965;23;20010;-66
2023/02/09 15:38:59;;;;;;;11.52;3.60;;;12.70;31.90;;;;;;7567474;23;20006;-65
2023/02/09 15:48:42;;;;;;;10.23;3.42;;;12.60;32.10;;;;;;7541686;23;20006;-64
2023/02/09 15:51:43;;;;;;;20.30;4.63;;;12.50;32.10;;;;;;7567932;23;20022;-64
2023/02/09 15:54:44;;;;;;;7.22;3.72;;;12.50;32.20;;;;;;7567899;23;20043;-65
2023/02/09 15:57:47;;;;;;;8.20;3.28;;;12.50;32.40;;;;;;7567280;23;20038;-65
2023/02/09 16:00:48;;;;;;;7.03;2.95;;;12.40;32.40;;;;;;7518128;23;20130;-65
2023/02/09 16:03:49;;;;;;;11.55;3.10;;;12.50;32.40;;;;;;7541618;23;20017;-65
2023/02/09 16:06:53;;;;;;;7.90;2.95;;;12.40;32.30;;;;;;7567355;23;20006;-66
2023/02/09 16:09:54;;;;;;;7.20;3.15;;;12.40;32.40;;;;;;7541234;23;20113;-64
2023/02/09 16:12:55;;;;;;;4.45;2.83;;;12.40;32.50;;;;;;7567116;23;20085;-66
2023/02/09 16:15:56;;;;;;;7.72;2.92;;;12.30;32.60;;;;;;7541480;23;20081;-65
2023/02/09 16:18:57;;;;;;;8.70;3.60;;;12.30;32.80;;;;;;7566760;23;20006;-64
2023/02/09 16:22:03;;;;;;;7.50;3.40;;;12.20;32.80;;;;;;7566955;23;20324;-65